Itaobim, Brazil
Current Conditions -  °F | °C
As of 1:00 AM on Thursday 23 Oct 2014 (Local Time) from SBQV Reporting Station
Drizzle Drizzle  
Wind Chill: 63°   Ceiling: 400
Heat Index: 63°   Visibility: 1.8mi
Dew Point: 63°   Wind: 12mph
Humidity: 100%   Direction: 130°SE
Pressure: 30.21"   Gusts: NA
Location:  16.55°S, 41.51°W
Report Text: SBQV 230300Z 13010KT 3000 -DZ BR OVC004 17/17 Q1023
Loading
Personal Weather Stations






























Interactive Weather Map
Tropical Storm Tracking
New forecast layout! Learn more

10-Day Weather Forecast

Advertisements
Track Severe Weather on mobile